createdAt,value
2023-12-17T00:00:50.857Z,2.08
2023-12-17T00:03:20.733Z,1.80
2023-12-17T00:05:50.086Z,1.80
2023-12-17T00:08:21.937Z,1.65
2023-12-17T00:10:50.426Z,1.75
2023-12-17T00:13:19.202Z,1.70
2023-12-17T00:15:47.725Z,2.30
2023-12-17T00:18:16.155Z,1.60
2023-12-17T00:20:44.562Z,1.80
2023-12-17T00:23:12.642Z,2.30
2023-12-17T00:25:41.946Z,2.60
2023-12-17T00:28:10.017Z,1.75
2023-12-17T00:30:38.170Z,2.08
2023-12-17T00:33:06.533Z,1.40
2023-12-17T00:35:34.602Z,2.40
2023-12-17T00:38:02.609Z,2.28
2023-12-17T00:40:30.561Z,2.13
2023-12-17T00:42:59.873Z,2.40
2023-12-17T00:45:27.851Z,1.85
2023-12-17T00:47:55.909Z,1.80
2023-12-17T00:50:23.883Z,2.10
2023-12-17T00:52:51.880Z,1.80
2023-12-17T00:55:19.993Z,2.00
2023-12-17T00:57:47.933Z,2.20
2023-12-17T01:00:18.242Z,2.13
2023-12-17T01:02:47.089Z,3.37
2023-12-17T01:05:15.356Z,1.73
2023-12-17T01:07:43.457Z,1.50
2023-12-17T01:10:11.555Z,1.50
2023-12-17T01:12:39.487Z,1.70
2023-12-17T01:15:08.304Z,1.95
2023-12-17T01:17:38.052Z,2.10
2023-12-17T01:20:09.259Z,1.90
2023-12-17T01:22:37.218Z,1.90
2023-12-17T01:25:05.584Z,2.17
2023-12-17T01:27:33.569Z,2.60
2023-12-17T01:30:01.687Z,2.70
2023-12-17T01:32:29.736Z,2.20
2023-12-17T01:34:59.088Z,2.30
2023-12-17T01:37:27.044Z,1.60
2023-12-17T01:39:55.013Z,2.10
2023-12-17T01:42:23.058Z,1.88
2023-12-17T01:44:51.077Z,2.10
2023-12-17T01:47:19.152Z,2.33
2023-12-17T01:49:47.221Z,2.13
2023-12-17T01:52:16.685Z,1.95
2023-12-17T01:54:44.767Z,2.22
2023-12-17T01:57:12.774Z,2.47
2023-12-17T01:59:41.829Z,2.20
2023-12-17T02:02:12.379Z,2.42
2023-12-17T02:04:40.931Z,2.00
2023-12-17T02:07:08.920Z,1.90
2023-12-17T02:09:38.496Z,2.03
2023-12-17T02:12:07.136Z,2.00
2023-12-17T02:14:35.127Z,2.08
2023-12-17T02:17:03.122Z,1.98
2023-12-17T02:19:31.105Z,1.90
2023-12-17T02:21:59.109Z,2.60
2023-12-17T02:24:28.520Z,1.50
2023-12-17T02:26:56.633Z,2.38
2023-12-17T02:29:24.637Z,1.80
2023-12-17T02:31:52.585Z,1.90
2023-12-17T02:34:20.654Z,1.60
2023-12-17T02:36:48.626Z,2.03
2023-12-17T02:39:16.800Z,1.80
2023-12-17T02:41:46.153Z,1.42
2023-12-17T02:44:14.209Z,2.00
2023-12-17T02:46:42.163Z,2.03
2023-12-17T02:49:10.178Z,2.33
2023-12-17T02:51:38.175Z,2.00
2023-12-17T02:54:06.167Z,2.15
2023-12-17T02:56:40.200Z,1.90
2023-12-17T02:59:10.191Z,2.40
2023-12-17T03:01:38.195Z,1.70
2023-12-17T03:04:06.712Z,1.70
2023-12-17T03:06:34.747Z,2.05
2023-12-17T03:09:02.746Z,1.98
2023-12-17T03:11:31.265Z,1.70
2023-12-17T03:13:59.381Z,2.55
2023-12-17T03:16:29.887Z,2.28
2023-12-17T03:18:57.981Z,2.28
2023-12-17T03:21:27.731Z,2.38
2023-12-17T03:23:56.024Z,2.42
2023-12-17T03:26:24.052Z,2.33
2023-12-17T03:28:52.005Z,1.95
2023-12-17T03:31:20.050Z,2.10
2023-12-17T03:33:49.943Z,2.03
2023-12-17T03:36:18.631Z,2.40
2023-12-17T03:38:48.489Z,1.50
2023-12-17T03:41:23.125Z,2.10
2023-12-17T03:43:52.932Z,1.73
2023-12-17T03:46:21.002Z,2.33
2023-12-17T03:48:50.945Z,2.40
2023-12-17T03:51:19.727Z,2.88
2023-12-17T03:53:47.743Z,1.92
2023-12-17T03:56:17.169Z,2.20
2023-12-17T03:58:45.568Z,2.00
2023-12-17T04:01:13.670Z,2.40
2023-12-17T04:03:41.838Z,2.13
2023-12-17T04:06:11.686Z,1.92
2023-12-17T04:08:39.727Z,2.30
2023-12-17T04:11:08.058Z,2.35
2023-12-17T04:13:36.015Z,1.90
2023-12-17T04:16:04.037Z,2.22
2023-12-17T04:18:32.552Z,2.20
2023-12-17T04:21:02.210Z,2.03
2023-12-17T04:23:31.675Z,2.95
2023-12-17T04:25:59.716Z,2.60
2023-12-17T04:28:27.684Z,2.40
2023-12-17T04:30:55.859Z,2.30
2023-12-17T04:33:24.138Z,2.45
2023-12-17T04:35:52.292Z,2.33
2023-12-17T04:38:20.250Z,2.20
2023-12-17T04:40:49.684Z,1.90
2023-12-17T04:43:17.652Z,2.30
2023-12-17T04:45:45.611Z,2.20
2023-12-17T04:48:13.753Z,2.20
2023-12-17T04:50:41.783Z,2.22
2023-12-17T04:53:09.727Z,2.67
2023-12-17T04:55:37.654Z,2.10
2023-12-17T04:58:06.969Z,2.28
2023-12-17T05:00:35.015Z,2.10
2023-12-17T05:03:03.061Z,1.98
2023-12-17T05:05:31.213Z,2.10
2023-12-17T05:07:59.320Z,2.25
2023-12-17T05:10:27.258Z,2.00
2023-12-17T05:12:55.793Z,2.00
2023-12-17T05:15:25.370Z,1.90
2023-12-17T05:17:53.738Z,2.47
2023-12-17T05:20:21.813Z,2.17
2023-12-17T05:22:49.770Z,1.90
2023-12-17T05:25:17.853Z,2.10
2023-12-17T05:27:45.991Z,2.22
2023-12-17T05:30:14.648Z,2.28
2023-12-17T05:32:44.275Z,1.70
2023-12-17T05:35:12.414Z,2.10
2023-12-17T05:37:41.048Z,1.90
2023-12-17T05:40:09.955Z,1.80
2023-12-17T05:42:38.705Z,1.90
2023-12-17T05:45:07.617Z,1.95
2023-12-17T05:47:35.824Z,2.08
2023-12-17T05:50:06.055Z,2.17
2023-12-17T05:52:34.359Z,1.80
2023-12-17T05:55:02.386Z,1.83
2023-12-17T05:57:30.409Z,1.90
2023-12-17T05:59:58.463Z,2.00
2023-12-17T06:02:26.447Z,2.17
2023-12-17T06:04:54.421Z,1.60
2023-12-17T06:07:23.759Z,2.10
2023-12-17T06:09:51.711Z,1.98
2023-12-17T06:12:19.985Z,1.60
2023-12-17T06:14:47.990Z,1.60
2023-12-17T06:17:15.962Z,1.73
2023-12-17T06:19:45.252Z,1.85
2023-12-17T06:22:16.884Z,2.10
2023-12-17T06:24:46.285Z,1.70
2023-12-17T06:27:17.361Z,1.73
2023-12-17T06:29:45.481Z,1.88
2023-12-17T06:32:13.891Z,1.90
2023-12-17T06:34:43.302Z,2.35
2023-12-17T06:37:12.939Z,2.10
2023-12-17T06:39:43.429Z,1.80
2023-12-17T06:42:13.164Z,1.80
2023-12-17T06:44:41.138Z,2.00
2023-12-17T06:47:17.617Z,1.90
2023-12-17T06:49:50.750Z,2.00
2023-12-17T06:52:18.948Z,1.80
2023-12-17T06:54:46.910Z,1.55
2023-12-17T06:57:16.277Z,2.00
2023-12-17T06:59:44.317Z,2.80
2023-12-17T07:02:12.316Z,1.80
2023-12-17T07:04:40.296Z,1.47
2023-12-17T07:07:08.281Z,1.65
2023-12-17T07:09:36.240Z,1.42
2023-12-17T07:12:04.264Z,1.70
2023-12-17T07:14:33.623Z,2.30
2023-12-17T07:17:01.571Z,1.80
2023-12-17T07:19:29.829Z,1.80
2023-12-17T07:21:57.838Z,0.50
2023-12-17T07:24:26.061Z,2.15
2023-12-17T07:26:54.094Z,1.97
2023-12-17T07:29:22.091Z,1.50
2023-12-17T07:31:51.404Z,1.75
2023-12-17T07:34:21.615Z,1.98
2023-12-17T07:36:50.700Z,1.50
2023-12-17T07:39:19.719Z,1.75
2023-12-17T07:41:48.334Z,1.80
2023-12-17T07:44:16.421Z,1.60
2023-12-17T07:46:44.400Z,1.90
2023-12-17T07:49:13.834Z,1.40
2023-12-17T07:51:41.946Z,1.85
2023-12-17T07:54:09.930Z,1.50
2023-12-17T07:56:37.919Z,1.77
2023-12-17T07:59:06.149Z,1.77
2023-12-17T08:01:35.253Z,1.50
2023-12-17T08:04:03.737Z,1.88
2023-12-17T08:06:36.180Z,1.90
2023-12-17T08:09:05.299Z,1.85
2023-12-17T08:11:33.308Z,2.30
2023-12-17T08:14:01.276Z,2.53
2023-12-17T08:16:29.235Z,3.08
2023-12-17T08:18:57.311Z,2.30
2023-12-17T08:21:25.408Z,2.55
2023-12-17T08:23:54.780Z,2.50
2023-12-17T08:26:22.739Z,0.80
2023-12-17T08:28:50.679Z,0.50
2023-12-17T08:31:18.739Z,1.00
2023-12-17T08:33:52.492Z,0.70
2023-12-17T08:36:20.769Z,0.60
2023-12-17T08:38:49.426Z,1.00
2023-12-17T08:41:18.799Z,0.90
2023-12-17T08:43:47.497Z,0.50
2023-12-17T08:46:15.467Z,0.53
2023-12-17T08:48:43.496Z,0.67
2023-12-17T08:51:12.895Z,0.80
2023-12-17T08:53:42.115Z,0.73
2023-12-17T08:56:10.869Z,0.90
2023-12-17T08:58:40.188Z,0.77
2023-12-17T09:01:08.475Z,0.50
2023-12-17T09:03:36.624Z,0.40
2023-12-17T09:06:04.990Z,0.77
2023-12-17T09:08:33.070Z,1.23
2023-12-17T09:11:01.026Z,0.90
2023-12-17T09:13:29.072Z,1.70
2023-12-17T09:15:58.500Z,0.50
2023-12-17T09:18:26.680Z,0.97
2023-12-17T09:20:54.846Z,0.57
2023-12-17T09:23:23.185Z,0.50
2023-12-17T09:25:51.226Z,0.60
2023-12-17T09:28:19.240Z,1.80
2023-12-17T09:30:47.263Z,1.17
2023-12-17T09:33:17.982Z,0.80
2023-12-17T09:35:46.075Z,1.17
2023-12-17T09:38:15.441Z,0.83
2023-12-17T09:40:44.953Z,0.70
2023-12-17T09:43:12.951Z,0.50
2023-12-17T09:45:43.825Z,0.63
2023-12-17T09:48:12.033Z,0.50
2023-12-17T09:50:41.513Z,0.53
2023-12-17T09:53:09.862Z,1.27
2023-12-17T09:55:37.892Z,0.60
2023-12-17T09:58:05.946Z,0.80
2023-12-17T10:00:34.606Z,0.63
2023-12-17T10:03:06.695Z,0.97
2023-12-17T10:05:35.530Z,0.70
2023-12-17T10:08:04.945Z,0.53
2023-12-17T10:10:32.929Z,0.60
2023-12-17T10:13:00.944Z,0.60
2023-12-17T10:15:29.001Z,0.90
2023-12-17T10:17:57.118Z,0.40
2023-12-17T10:20:25.150Z,0.50
2023-12-17T10:22:59.592Z,0.40
2023-12-17T10:25:30.283Z,0.40
2023-12-17T10:27:59.986Z,0.40
2023-12-17T10:30:30.356Z,0.77
2023-12-17T10:33:00.312Z,1.23
2023-12-17T10:35:29.372Z,0.80
2023-12-17T10:38:01.316Z,0.73
2023-12-17T10:40:31.462Z,0.50
2023-12-17T10:43:00.933Z,0.50
2023-12-17T10:45:31.001Z,0.60
2023-12-17T10:48:00.074Z,1.20
2023-12-17T10:50:28.930Z,0.80
2023-12-17T10:52:56.964Z,0.60
2023-12-17T10:55:24.922Z,0.40
2023-12-17T10:57:59.644Z,0.87
2023-12-17T11:00:31.940Z,0.50
2023-12-17T11:03:03.526Z,0.60
2023-12-17T11:05:31.659Z,1.10
2023-12-17T11:07:59.695Z,0.97
2023-12-17T11:10:27.936Z,0.90
2023-12-17T11:53:08.900Z,0.60
2023-12-17T11:55:47.282Z,0.70
2023-12-17T11:58:21.389Z,0.60
2023-12-17T12:01:07.356Z,0.90
2023-12-17T12:03:36.363Z,0.40
2023-12-17T12:06:09.466Z,0.83
2023-12-17T12:08:38.189Z,1.13
2023-12-17T12:11:08.576Z,0.50
2023-12-17T12:13:42.166Z,0.90
2023-12-17T12:16:10.945Z,0.90
2023-12-17T12:18:39.086Z,0.43
2023-12-17T12:21:16.955Z,0.60
2023-12-17T12:23:51.962Z,1.43
2023-12-17T12:26:20.595Z,0.70
2023-12-17T12:28:56.731Z,0.73
2023-12-17T12:31:25.016Z,1.57
2023-12-17T12:33:56.857Z,2.10
2023-12-17T12:36:25.075Z,2.28
2023-12-17T12:39:03.537Z,1.20
2023-12-17T12:41:32.085Z,1.03
2023-12-17T12:44:02.232Z,0.87
2023-12-17T12:46:30.200Z,0.83
2023-12-17T12:48:58.995Z,3.03
2023-12-17T12:51:28.692Z,0.70
2023-12-17T12:53:58.274Z,0.60
2023-12-17T12:56:26.273Z,1.07
2023-12-17T12:58:54.202Z,0.87
2023-12-17T13:01:23.569Z,1.20
2023-12-17T13:03:51.710Z,1.53
2023-12-17T13:06:19.992Z,0.80
2023-12-17T13:08:48.023Z,0.90
2023-12-17T13:11:15.994Z,0.70
2023-12-17T13:13:44.250Z,0.57
2023-12-17T13:16:12.994Z,0.70
2023-12-17T13:18:42.404Z,0.60
2023-12-17T13:21:10.406Z,0.50
2023-12-17T13:23:38.371Z,2.07
2023-12-17T13:26:10.927Z,0.90
2023-12-17T13:28:45.493Z,1.20
2023-12-17T13:31:13.832Z,0.63
2023-12-17T13:33:43.365Z,0.60
2023-12-17T13:36:13.059Z,1.30
2023-12-17T13:38:40.990Z,1.73
2023-12-17T13:41:08.938Z,1.30
2023-12-17T13:43:36.881Z,0.80
2023-12-17T13:46:04.895Z,0.70
2023-12-17T13:48:34.675Z,1.13
2023-12-17T13:51:04.618Z,0.60
2023-12-17T13:53:32.566Z,0.50
2023-12-17T13:56:01.156Z,0.87
2023-12-17T13:58:29.666Z,1.07
2023-12-17T14:00:57.655Z,0.67
2023-12-17T14:03:27.726Z,0.60
2023-12-17T14:05:58.619Z,0.70
2023-12-17T14:08:28.898Z,1.20
2023-12-17T14:10:57.708Z,2.57
2023-12-17T14:13:26.676Z,2.10
2023-12-17T14:15:55.978Z,1.40
2023-12-17T14:18:26.561Z,0.97
2023-12-17T14:20:54.940Z,1.63
2023-12-17T14:23:24.150Z,0.40
2023-12-17T14:25:54.595Z,0.70
2023-12-17T14:28:23.470Z,0.63
2023-12-17T14:30:52.330Z,0.60
2023-12-17T14:33:21.428Z,0.70
2023-12-17T14:35:50.847Z,0.90
2023-12-17T14:38:21.232Z,0.50
2023-12-17T14:40:49.991Z,0.60
2023-12-17T14:43:20.671Z,0.60
2023-12-17T14:45:49.025Z,0.60
2023-12-17T14:48:17.536Z,1.33
2023-12-17T14:50:48.307Z,0.60
2023-12-17T14:53:19.279Z,1.00
2023-12-17T14:55:47.530Z,0.60
2023-12-17T14:58:16.285Z,0.70
2023-12-17T15:00:49.446Z,0.70
2023-12-17T15:03:21.397Z,1.10
2023-12-17T15:05:49.725Z,0.93
2023-12-17T15:08:19.499Z,0.97
2023-12-17T15:10:52.494Z,1.03
2023-12-17T15:13:38.647Z,0.50
2023-12-17T15:16:31.561Z,0.67
2023-12-17T15:19:23.216Z,0.80
2023-12-17T15:22:16.631Z,0.50
2023-12-17T15:25:09.606Z,1.07
2023-12-17T15:27:53.654Z,1.67
2023-12-17T15:30:45.481Z,1.03
2023-12-17T15:33:38.772Z,1.50
2023-12-17T15:36:28.071Z,0.80
2023-12-17T15:39:15.882Z,1.80
2023-12-17T15:42:05.544Z,0.90
2023-12-17T15:44:53.870Z,0.50
2023-12-17T15:47:39.884Z,0.73
2023-12-17T15:50:33.526Z,0.80
2023-12-17T15:53:26.182Z,0.40
2023-12-17T15:56:13.894Z,0.70
2023-12-17T15:59:02.257Z,1.53
2023-12-17T16:01:50.596Z,1.07
2023-12-17T16:04:40.588Z,0.87
2023-12-17T16:07:34.543Z,1.23
2023-12-17T16:10:26.637Z,1.43
2023-12-17T16:13:20.677Z,1.77
2023-12-17T16:16:12.502Z,1.90
2023-12-17T16:19:02.660Z,2.10
2023-12-17T16:21:50.631Z,1.87
2023-12-17T16:24:46.531Z,1.47
2023-12-17T16:27:37.416Z,1.60
2023-12-17T16:30:28.618Z,0.50
2023-12-17T16:33:22.590Z,0.60
2023-12-17T16:36:12.530Z,0.50
2023-12-17T16:38:55.246Z,0.53
2023-12-17T16:41:44.596Z,0.60
2023-12-17T16:44:33.252Z,0.40
2023-12-17T16:47:20.599Z,0.80
2023-12-17T16:50:12.541Z,0.50
2023-12-17T16:52:59.538Z,0.73
2023-12-17T16:55:45.713Z,0.50
2023-12-17T16:58:39.588Z,0.50
2023-12-17T17:01:29.784Z,0.40
2023-12-17T17:04:23.358Z,0.60
2023-12-17T17:07:17.870Z,0.53
2023-12-17T17:10:07.855Z,0.40
2023-12-17T17:12:53.744Z,0.60
2023-12-17T17:15:47.813Z,0.40
2023-12-17T17:18:37.299Z,0.80
2023-12-17T17:21:30.155Z,0.93
2023-12-17T17:24:18.194Z,0.30
2023-12-17T17:27:08.360Z,0.40
2023-12-17T17:30:00.580Z,0.40
2023-12-17T17:32:50.237Z,0.67
2023-12-17T17:35:37.584Z,0.43
2023-12-17T17:38:28.390Z,0.87
2023-12-17T17:41:22.087Z,0.40
2023-12-17T17:44:12.519Z,1.10
2023-12-17T17:46:59.786Z,0.50
2023-12-17T17:49:48.425Z,0.80
2023-12-17T17:52:16.686Z,0.40
2023-12-17T17:54:45.832Z,0.60
2023-12-17T17:57:15.229Z,0.90
2023-12-17T17:59:43.180Z,0.77
2023-12-17T18:02:12.031Z,0.50
2023-12-17T18:04:41.349Z,0.40
2023-12-17T18:07:09.318Z,0.50
2023-12-17T18:09:37.314Z,1.20
2023-12-17T18:12:05.950Z,0.60
2023-12-17T18:14:34.104Z,0.77
2023-12-17T18:17:02.042Z,0.77
2023-12-17T18:19:30.080Z,0.80
2023-12-17T18:21:59.462Z,0.60
2023-12-17T18:24:27.439Z,0.50
2023-12-17T18:27:01.361Z,0.40
2023-12-17T18:29:29.499Z,0.50
2023-12-17T18:31:57.454Z,0.80
2023-12-17T18:34:28.353Z,0.73
2023-12-17T18:36:56.520Z,1.07
2023-12-17T18:39:26.019Z,0.83
2023-12-17T18:41:53.970Z,0.50
2023-12-17T18:44:21.953Z,0.40
2023-12-17T18:46:49.905Z,0.80
2023-12-17T18:49:18.019Z,0.50
2023-12-17T18:51:46.080Z,0.70
2023-12-17T18:54:14.055Z,0.40
2023-12-17T18:56:43.410Z,0.40
2023-12-17T18:59:11.365Z,0.40
2023-12-17T19:01:39.336Z,0.60
2023-12-17T19:04:07.448Z,0.67
2023-12-17T19:06:35.646Z,0.63
2023-12-17T19:09:06.176Z,0.40
2023-12-17T19:11:34.470Z,0.57
2023-12-17T19:14:04.159Z,1.00
2023-12-17T19:16:32.096Z,0.60
2023-12-17T19:19:00.121Z,0.50
2023-12-17T19:21:28.730Z,0.40
2023-12-17T19:23:56.743Z,0.40
2023-12-17T19:26:24.803Z,0.50
2023-12-17T19:28:52.745Z,0.70
2023-12-17T19:31:22.437Z,0.70
2023-12-17T19:33:50.583Z,1.20
2023-12-17T19:36:18.630Z,0.40
2023-12-17T19:38:47.260Z,0.40
2023-12-17T19:41:15.246Z,0.40
2023-12-17T19:43:43.176Z,0.47
2023-12-17T19:46:11.166Z,1.13
2023-12-17T19:48:41.865Z,0.70
2023-12-17T19:51:14.587Z,0.57
2023-12-17T19:53:42.544Z,0.50
2023-12-17T19:56:15.347Z,0.40
2023-12-17T19:58:44.776Z,0.40
2023-12-17T20:01:13.229Z,0.50
2023-12-17T20:03:43.485Z,0.83
2023-12-17T20:06:12.053Z,0.40
2023-12-17T20:08:41.689Z,0.50
2023-12-17T20:11:09.871Z,0.40
2023-12-17T20:13:38.559Z,0.40
2023-12-17T20:16:08.474Z,0.73
2023-12-17T20:18:36.705Z,0.47
2023-12-17T20:21:06.331Z,0.53
2023-12-17T20:23:34.351Z,0.77
2023-12-17T20:26:02.304Z,1.00
2023-12-17T20:28:30.244Z,0.67
2023-12-17T20:30:58.265Z,1.43
2023-12-17T20:33:28.196Z,0.60
2023-12-17T20:35:56.298Z,0.70
2023-12-17T20:38:25.601Z,0.60
2023-12-17T20:40:54.274Z,0.60
2023-12-17T20:43:22.238Z,0.40
2023-12-17T20:45:50.156Z,0.73
2023-12-17T20:48:18.325Z,1.17
2023-12-17T20:50:47.492Z,0.40
2023-12-17T20:53:17.034Z,0.37
2023-12-17T20:55:46.362Z,0.50
2023-12-17T20:58:14.327Z,0.40
2023-12-17T21:00:42.335Z,0.40
2023-12-17T21:03:10.796Z,1.40
2023-12-17T21:05:39.166Z,0.90
2023-12-17T21:08:07.304Z,0.50
2023-12-17T21:10:35.277Z,0.40
2023-12-17T21:13:04.693Z,0.60
2023-12-17T21:15:32.683Z,0.50
2023-12-17T21:18:00.919Z,0.43
2023-12-17T21:20:31.711Z,0.40
2023-12-17T21:23:01.198Z,0.40
2023-12-17T21:25:29.156Z,0.70
2023-12-17T21:27:57.279Z,0.47
2023-12-17T21:30:26.741Z,0.40
2023-12-17T21:32:54.913Z,0.40
2023-12-17T21:35:22.887Z,0.40
2023-12-17T21:37:50.878Z,0.47
2023-12-17T21:40:18.813Z,0.77
2023-12-17T21:42:47.131Z,0.53
2023-12-17T21:45:15.289Z,0.40
2023-12-17T21:47:44.903Z,0.73
2023-12-17T21:50:13.166Z,0.83
2023-12-17T21:52:41.120Z,0.60
